Time;durP1;ratioP1;P1;durP2;ratioP2;P2;SDS_P1;SDS_P2;PMS_P1;PMS_P2;Temp;Humidity;BMP_temperature;BMP_pressure;BME280_temperature;BME280_humidity;BME280_pressure;Samples;Min_cycle;Max_cycle;Signal;HPM_P1;HPM_P2
2023/04/07 00:00:03;;;;;;;7.03;4.13;;;;;;;16.54;34.55;99987.16;5092130;28;20685;-77
2023/04/07 00:02:36;;;;;;;5.90;4.30;;;;;;;16.48;34.44;99981.47;5092564;28;20052;-77
2023/04/07 00:05:05;;;;;;;6.07;4.20;;;;;;;16.47;34.55;99987.84;5092755;28;20051;-78
2023/04/07 00:07:36;;;;;;;6.60;4.80;;;;;;;16.46;34.49;99992.38;5092662;28;20098;-78
2023/04/07 00:10:25;;;;;;;6.20;4.32;;;;;;;16.40;34.55;99987.53;5092696;28;20559;-77
2023/04/07 00:12:56;;;;;;;5.75;4.18;;;;;;;16.39;34.56;99991.22;5092374;28;20059;-77
2023/04/07 00:15:25;;;;;;;6.88;4.80;;;;;;;16.37;34.61;99990.50;5075606;28;20044;-77
2023/04/07 00:17:55;;;;;;;5.68;4.00;;;;;;;16.35;34.71;99983.56;5092813;28;20048;-81
2023/04/07 00:20:23;;;;;;;6.05;4.30;;;;;;;16.33;34.75;99974.78;5092625;28;20044;-79
2023/04/07 00:22:51;;;;;;;6.63;4.40;;;;;;;16.31;34.74;99972.22;5092397;28;20044;-79
2023/04/07 00:25:19;;;;;;;6.68;4.50;;;;;;;16.28;34.76;99972.47;5092019;28;20075;-78
2023/04/07 00:27:47;;;;;;;7.03;4.43;;;;;;;16.26;34.79;99974.47;5092187;28;20489;-77
2023/04/07 00:30:16;;;;;;;5.82;4.13;;;;;;;16.22;34.70;99973.88;5092001;28;20138;-76
2023/04/07 00:32:45;;;;;;;6.22;4.60;;;;;;;16.18;34.74;99963.50;5092378;28;20063;-76
2023/04/07 00:35:14;;;;;;;6.38;4.47;;;;;;;16.19;34.77;99967.91;5092330;28;20123;-77
2023/04/07 00:37:43;;;;;;;7.03;4.32;;;;;;;16.17;34.72;99972.56;5092231;28;20047;-79
2023/04/07 00:40:11;;;;;;;6.05;4.25;;;;;;;16.13;34.68;99966.63;5092142;28;20048;-77
2023/04/07 00:42:40;;;;;;;5.75;4.00;;;;;;;16.10;34.75;99963.31;5092353;28;20048;-78
2023/04/07 00:45:10;;;;;;;6.90;4.30;;;;;;;16.08;34.82;99966.16;5092508;28;20056;-78
2023/04/07 00:47:41;;;;;;;6.30;4.07;;;;;;;16.06;34.83;99965.44;5092397;28;20143;-78
2023/04/07 00:50:10;;;;;;;7.05;4.45;;;;;;;16.03;34.86;99969.25;5092035;28;20048;-78
2023/04/07 00:52:42;;;;;;;6.10;4.07;;;;;;;16.02;34.92;99962.19;5092296;28;20059;-77
2023/04/07 00:55:10;;;;;;;6.82;4.60;;;;;;;16.00;34.68;99968.66;5092090;28;20040;-77
2023/04/07 00:57:38;;;;;;;6.45;4.25;;;;;;;15.98;34.91;99963.41;5092008;28;20075;-77
2023/04/07 01:00:08;;;;;;;6.38;4.43;;;;;;;15.96;34.91;99965.41;5092207;28;20044;-78
2023/04/07 01:02:40;;;;;;;7.22;4.70;;;;;;;15.94;34.89;99964.69;5092051;28;20105;-77
2023/04/07 01:05:15;;;;;;;7.03;4.97;;;;;;;15.90;34.85;99963.22;5093161;28;20052;-79
2023/04/07 01:07:58;;;;;;;7.07;4.72;;;;;;;15.90;34.97;99967.75;5093822;28;20504;-77
2023/04/07 01:10:32;;;;;;;;;;;;;;;15.87;34.97;99962.66;5095639;28;20420;-76
2023/04/07 01:13:05;;;;;;;6.75;4.43;;;;;;;15.85;34.99;99951.19;5095846;28;19926;-77
2023/04/07 01:15:36;;;;;;;6.15;4.53;;;;;;;15.84;34.93;99952.16;5095854;28;20055;-76
2023/04/07 01:18:12;;;;;;;6.55;4.25;;;;;;;15.81;34.99;99950.56;5096012;28;20473;-77
2023/04/07 01:20:43;;;;;;;6.28;4.50;;;;;;;15.77;34.98;99941.09;5095824;28;20048;-77
2023/04/07 01:23:23;;;;;;;7.53;4.75;;;;;;;15.79;35.03;99946.31;5095411;28;20048;-77
2023/04/07 01:26:07;;;;;;;8.38;4.95;;;;;;;15.75;35.05;99935.00;5095314;28;20485;-76
2023/04/07 01:28:49;;;;;;;6.50;4.63;;;;;;;15.74;35.08;99946.72;5095388;28;20052;-76
2023/04/07 01:31:20;;;;;;;8.70;4.43;;;;;;;15.71;35.09;99930.84;5095224;28;20429;-77
2023/04/07 01:33:51;;;;;;;6.55;4.50;;;;;;;15.70;34.98;99945.28;5095154;28;20087;-77
2023/04/07 01:36:22;;;;;;;7.43;4.57;;;;;;;15.67;35.04;99940.19;5095265;28;20044;-78
2023/04/07 01:38:52;;;;;;;7.38;4.57;;;;;;;15.67;35.14;99929.41;5095978;28;20071;-78
2023/04/07 01:41:22;;;;;;;6.65;4.55;;;;;;;15.65;35.06;99936.78;5095247;28;20447;-76
2023/04/07 01:43:52;;;;;;;7.72;4.60;;;;;;;15.64;35.01;99933.22;5095753;28;20113;-77
2023/04/07 01:46:22;;;;;;;6.50;4.47;;;;;;;15.61;35.21;99930.78;5095207;28;20051;-78
2023/04/07 01:48:51;;;;;;;5.95;4.32;;;;;;;15.59;35.03;99931.88;5095263;28;20055;-78
2023/04/07 01:51:21;;;;;;;7.05;4.50;;;;;;;15.58;35.13;99932.88;5095457;28;20071;-77
2023/04/07 01:53:49;;;;;;;6.97;4.00;;;;;;;15.57;35.09;99933.84;5077461;28;20058;-77
2023/04/07 01:56:17;;;;;;;6.90;4.53;;;;;;;15.54;35.19;99934.97;5095110;28;20069;-77
2023/04/07 01:58:45;;;;;;;7.10;4.53;;;;;;;15.54;35.04;99936.78;5095323;28;20048;-79
2023/04/07 02:01:14;;;;;;;7.63;5.00;;;;;;;15.51;35.09;99932.53;5095398;28;20089;-78
2023/04/07 02:03:49;;;;;;;6.70;4.32;;;;;;;15.49;35.16;99930.97;5095195;28;20044;-78
2023/04/07 02:06:22;;;;;;;5.97;4.03;;;;;;;15.49;35.16;99925.59;5095142;28;20048;-78
2023/04/07 02:08:57;;;;;;;6.78;4.38;;;;;;;15.45;35.22;99931.25;5094864;28;20044;-77
2023/04/07 02:11:27;;;;;;;6.22;4.60;;;;;;;15.45;35.23;99927.69;5095065;28;20441;-77
2023/04/07 02:13:57;;;;;;;5.70;4.13;;;;;;;15.43;35.13;99937.69;5094817;28;20495;-77
2023/04/07 02:16:25;;;;;;;5.88;4.63;;;;;;;15.38;35.15;99930.06;5094920;28;20199;-77
2023/04/07 02:18:56;;;;;;;6.10;3.97;;;;;;;15.41;35.36;99928.94;5095034;28;20576;-77
2023/04/07 02:21:25;;;;;;;5.65;4.18;;;;;;;15.38;35.30;99930.06;5093509;28;20083;-77
2023/04/07 02:23:53;;;;;;;6.30;4.75;;;;;;;15.37;35.27;99928.34;5094848;28;20475;-78
2023/04/07 02:26:22;;;;;;;6.35;4.40;;;;;;;15.36;35.24;99929.34;5094343;28;20504;-77
2023/04/07 02:28:50;;;;;;;6.40;4.32;;;;;;;15.34;35.22;99928.59;5094580;28;20052;-79
2023/04/07 02:31:18;;;;;;;6.10;4.43;;;;;;;15.30;35.34;99924.47;5094910;28;20044;-78
2023/04/07 02:33:47;;;;;;;5.82;4.20;;;;;;;15.30;35.31;99913.72;5094994;28;20044;-78
2023/04/07 02:36:16;;;;;;;6.50;4.15;;;;;;;15.30;35.20;99926.31;5094498;28;20063;-78
2023/04/07 02:38:44;;;;;;;6.30;4.30;;;;;;;15.28;35.07;99926.44;5094224;28;20593;-78
2023/04/07 02:41:12;;;;;;;7.07;4.38;;;;;;;15.26;35.20;99925.72;5094098;28;20486;-78
2023/04/07 02:43:40;;;;;;;5.30;4.18;;;;;;;15.25;35.41;99929.41;5094211;28;20044;-79
2023/04/07 02:46:08;;;;;;;6.10;4.25;;;;;;;15.24;35.39;99930.34;5093660;28;20447;-79
2023/04/07 02:48:37;;;;;;;5.95;4.30;;;;;;;15.21;35.37;99930.63;5094095;28;20129;-79
2023/04/07 02:51:05;;;;;;;6.03;4.20;;;;;;;15.19;35.37;99935.28;5094050;28;20097;-77
2023/04/07 02:53:35;;;;;;;5.95;3.88;;;;;;;15.20;35.33;99936.97;5094109;28;20474;-78
2023/04/07 02:56:03;;;;;;;6.50;4.10;;;;;;;15.18;35.38;99936.25;5094078;28;20354;-77
2023/04/07 02:58:31;;;;;;;8.02;4.47;;;;;;;15.17;35.46;99926.50;5093775;28;20095;-77
2023/04/07 03:01:00;;;;;;;6.55;4.43;;;;;;;15.15;35.31;99923.06;5093936;28;20044;-77
2023/04/07 03:03:28;;;;;;;5.90;4.22;;;;;;;15.12;35.46;99924.19;5093812;28;20044;-77
2023/04/07 03:05:56;;;;;;;6.22;4.20;;;;;;;15.12;35.45;99929.56;5093361;28;20052;-77
2023/04/07 03:08:24;;;;;;;6.38;4.35;;;;;;;15.11;35.32;99925.16;5093672;28;20044;-78
2023/04/07 03:10:54;;;;;;;6.07;4.20;;;;;;;15.08;35.46;99925.44;5093711;28;20493;-77
2023/04/07 03:13:22;;;;;;;6.57;4.28;;;;;;;15.06;35.33;99922.03;5093999;28;20066;-78
2023/04/07 03:15:52;;;;;;;6.25;4.00;;;;;;;15.07;35.37;99928.25;5093518;28;20097;-77
2023/04/07 03:18:20;;;;;;;5.88;3.85;;;;;;;15.06;35.45;99913.13;5093535;28;20044;-78
2023/04/07 03:20:48;;;;;;;6.72;4.07;;;;;;;15.05;35.40;99924.81;5093559;28;20545;-78
2023/04/07 03:23:18;;;;;;;6.03;4.18;;;;;;;15.03;35.35;99927.66;5093605;28;20055;-78
2023/04/07 03:25:46;;;;;;;5.65;4.03;;;;;;;15.02;35.38;99922.41;5093616;28;20048;-78
2023/04/07 03:28:17;;;;;;;6.72;4.00;;;;;;;15.00;35.36;99929.75;5092757;28;20046;-78
2023/04/07 03:30:45;;;;;;;5.38;4.07;;;;;;;14.97;35.53;99930.00;5093357;28;20044;-78
2023/04/07 03:33:13;;;;;;;6.88;4.28;;;;;;;14.99;35.46;99925.34;5092587;28;20105;-78
2023/04/07 03:35:42;;;;;;;5.97;4.05;;;;;;;14.96;35.43;99922.91;5092914;28;20089;-78
2023/04/07 03:38:17;;;;;;;6.05;4.13;;;;;;;14.92;35.55;99916.09;5093093;28;20047;-78
2023/04/07 03:40:45;;;;;;;6.55;4.15;;;;;;;14.94;35.55;99925.72;5092922;28;20066;-79
2023/04/07 03:43:14;;;;;;;6.22;4.10;;;;;;;14.92;35.49;99932.22;5092955;28;20503;-78
2023/04/07 03:45:44;;;;;;;6.63;4.18;;;;;;;14.93;35.51;99931.22;5092638;28;20044;-77
2023/04/07 03:48:12;;;;;;;5.60;4.00;;;;;;;14.89;35.46;99918.06;5092788;28;20044;-77
2023/04/07 03:50:41;;;;;;;5.90;3.90;;;;;;;14.88;35.60;99924.41;5093083;28;20047;-76
2023/04/07 03:53:09;;;;;;;6.10;4.25;;;;;;;14.87;35.61;99930.78;5092761;28;20044;-77
2023/04/07 03:55:38;;;;;;;6.38;4.22;;;;;;;14.87;35.62;99936.16;5092490;28;20044;-76
2023/04/07 03:58:06;;;;;;;8.00;4.50;;;;;;;14.85;35.56;99938.06;5092491;28;20135;-78
2023/04/07 04:00:35;;;;;;;5.57;4.03;;;;;;;14.83;35.61;99940.03;5092328;28;20083;-76
2023/04/07 04:03:04;;;;;;;5.80;4.40;;;;;;;14.83;35.69;99939.19;5092815;28;20048;-78
2023/04/07 04:05:32;;;;;;;5.65;4.10;;;;;;;14.82;35.69;99943.72;5093040;28;20052;-76
2023/04/07 04:08:01;;;;;;;6.53;3.78;;;;;;;14.79;35.51;99941.28;5092912;28;20049;-76
2023/04/07 04:10:30;;;;;;;6.43;4.28;;;;;;;14.79;35.66;99948.50;5092906;28;20090;-79
2023/04/07 04:12:59;;;;;;;6.80;4.40;;;;;;;14.78;35.61;99947.66;5093243;28;20044;-77
2023/04/07 04:15:27;;;;;;;6.45;4.13;;;;;;;14.77;35.66;99953.16;5092598;28;20044;-77
2023/04/07 04:17:55;;;;;;;6.47;4.57;;;;;;;14.77;35.67;99954.00;5092908;28;20041;-79
2023/04/07 04:20:26;;;;;;;5.55;4.07;;;;;;;14.75;35.53;99955.94;5092558;28;20055;-79
2023/04/07 04:22:54;;;;;;;5.53;4.05;;;;;;;14.75;35.65;99955.06;5092547;28;20048;-79
2023/04/07 04:25:23;;;;;;;6.88;4.40;;;;;;;14.74;35.63;99958.75;5092676;28;20101;-79
2023/04/07 04:27:51;;;;;;;5.88;4.05;;;;;;;14.73;35.58;99955.22;5092320;28;20044;-78
2023/04/07 04:30:22;;;;;;;7.13;4.20;;;;;;;14.71;35.68;99950.94;5092552;28;20135;-78
2023/04/07 04:32:52;;;;;;;6.38;4.57;;;;;;;14.71;35.45;99951.81;5093051;28;20072;-77
2023/04/07 04:35:20;;;;;;;5.38;3.60;;;;;;;14.70;35.74;99950.09;5092420;28;20525;-78
2023/04/07 04:37:50;;;;;;;6.05;4.10;;;;;;;14.70;35.54;99947.41;5092677;28;20044;-77
2023/04/07 04:40:18;;;;;;;7.15;4.25;;;;;;;14.72;35.87;99950.81;5092461;28;20048;-79
2023/04/07 04:42:46;;;;;;;4.97;3.58;;;;;;;14.74;35.89;99959.59;5092828;28;20052;-79
2023/04/07 04:45:15;;;;;;;5.70;3.65;;;;;;;14.80;36.09;99966.31;5093818;28;20481;-78
2023/04/07 04:47:43;;;;;;;5.30;3.90;;;;;;;14.87;36.04;99962.16;5096278;28;20047;-78
2023/04/07 04:50:11;;;;;;;6.60;4.32;;;;;;;14.97;36.04;99964.94;5096333;28;20048;-80
2023/04/07 04:52:39;;;;;;;5.50;3.80;;;;;;;15.04;36.10;99963.41;5096432;28;20051;-77
2023/04/07 04:55:10;;;;;;;5.80;3.92;;;;;;;15.12;35.88;99971.69;5096384;28;20048;-78
2023/04/07 04:57:41;;;;;;;;;;;;;;;15.18;35.95;99961.28;5097013;28;20459;-80
2023/04/07 05:00:10;;;;;;;5.07;3.65;;;;;;;15.27;35.84;99977.63;5097393;28;19931;-78
2023/04/07 05:02:39;;;;;;;5.13;3.70;;;;;;;15.35;35.86;99978.69;5116768;28;20503;-79
2023/04/07 05:05:08;;;;;;;5.60;3.75;;;;;;;15.44;35.85;99977.91;5116471;28;20051;-78
2023/04/07 05:07:39;;;;;;;5.18;3.70;;;;;;;15.54;35.95;99963.66;5116591;28;20084;-78
2023/04/07 05:10:09;;;;;;;5.55;3.65;;;;;;;15.63;35.82;99970.97;5116604;28;20075;-78
2023/04/07 05:12:38;;;;;;;5.45;3.40;;;;;;;15.71;35.79;99973.88;5116489;28;20044;-78
2023/04/07 05:15:07;;;;;;;5.80;4.07;;;;;;;15.79;35.76;99971.38;5116547;28;20043;-78
2023/04/07 05:17:36;;;;;;;5.50;3.60;;;;;;;15.87;35.50;99970.72;5116814;28;20135;-77
2023/04/07 05:20:09;;;;;;;5.50;3.80;;;;;;;15.97;35.63;99980.53;5109495;28;20490;-78
2023/04/07 05:22:38;;;;;;;5.50;3.63;;;;;;;16.06;35.70;99978.03;5105373;28;20139;-78
2023/04/07 05:25:07;;;;;;;6.13;3.92;;;;;;;16.15;35.64;99980.78;5105495;28;20128;-77
2023/04/07 05:27:37;;;;;;;6.05;4.30;;;;;;;16.27;35.49;99986.91;5104674;28;20382;-78
2023/04/07 05:30:06;;;;;;;6.03;3.80;;;;;;;16.35;35.40;99984.41;5106218;28;20051;-77
2023/04/07 05:32:35;;;;;;;6.00;3.60;;;;;;;16.39;35.35;99977.75;5103592;28;20066;-78
2023/04/07 05:35:03;;;;;;;6.05;4.13;;;;;;;16.45;35.25;99990.69;5110176;28;20356;-78
2023/04/07 05:37:31;;;;;;;4.88;3.60;;;;;;;16.47;35.22;99988.69;5107337;28;20035;-78
2023/04/07 05:40:02;;;;;;;6.28;4.22;;;;;;;16.49;35.31;99989.41;5105281;28;20047;-82
2023/04/07 05:42:32;;;;;;;6.30;3.70;;;;;;;16.51;35.32;99990.16;5105853;28;20046;-80
2023/04/07 05:45:07;;;;;;;5.13;3.47;;;;;;;16.51;35.14;99984.75;5104414;28;20400;-80
2023/04/07 05:47:35;;;;;;;5.60;3.80;;;;;;;16.52;35.25;99996.38;5103627;28;20048;-80
2023/04/07 05:50:04;;;;;;;5.47;4.07;;;;;;;16.52;35.27;99997.22;5103377;28;20048;-78
2023/04/07 05:52:32;;;;;;;5.15;3.50;;;;;;;16.51;35.26;99992.84;5104932;28;20122;-78
2023/04/07 05:55:01;;;;;;;5.80;3.83;;;;;;;16.50;35.25;99995.63;5104765;28;20044;-79
2023/04/07 05:57:29;;;;;;;6.18;3.95;;;;;;;16.48;35.17;99995.78;5105126;28;20048;-80
2023/04/07 05:59:58;;;;;;;5.55;4.10;;;;;;;16.46;35.24;99987.00;5103994;28;20094;-80
2023/04/07 06:02:28;;;;;;;5.78;3.88;;;;;;;16.46;35.18;99995.06;5112222;28;20136;-78
2023/04/07 06:04:56;;;;;;;5.38;3.90;;;;;;;16.45;35.26;99996.06;5115350;28;20066;-78
2023/04/07 06:07:24;;;;;;;6.53;4.15;;;;;;;16.42;35.34;99996.34;5115405;28;20047;-79
2023/04/07 06:09:55;;;;;;;5.57;4.03;;;;;;;16.41;35.18;99989.25;5115024;28;20044;-79
2023/04/07 06:12:23;;;;;;;6.07;4.07;;;;;;;16.38;35.27;99989.50;5115007;28;20055;-77
2023/04/07 06:14:53;;;;;;;5.50;3.63;;;;;;;16.37;35.22;99993.19;5114957;28;20404;-78
2023/04/07 06:17:21;;;;;;;5.85;3.80;;;;;;;16.35;35.31;99988.94;5109328;28;20040;-78
2023/04/07 06:19:51;;;;;;;5.25;3.55;;;;;;;16.31;35.10;99993.75;5093681;28;20044;-78
2023/04/07 06:22:19;;;;;;;5.70;4.15;;;;;;;16.28;35.12;99994.00;5094147;28;20113;-78
2023/04/07 06:24:47;;;;;;;7.63;4.35;;;;;;;16.29;35.13;99995.69;5094204;28;20470;-80
2023/04/07 06:27:15;;;;;;;5.90;4.15;;;;;;;16.26;35.07;99999.53;5094736;28;20052;-79
2023/04/07 06:29:44;;;;;;;6.00;3.75;;;;;;;16.20;35.25;99991.97;5095370;28;20404;-81
2023/04/07 06:32:12;;;;;;;5.47;3.90;;;;;;;16.18;35.42;99996.66;5095037;28;20040;-81
2023/04/07 06:34:40;;;;;;;6.25;4.05;;;;;;;16.18;35.24;100003.88;5094100;28;20137;-80
2023/04/07 06:37:10;;;;;;;7.97;4.28;;;;;;;16.16;35.24;100006.69;5093797;28;20105;-77
2023/04/07 06:39:39;;;;;;;6.80;4.20;;;;;;;16.12;35.35;100005.28;5104196;28;20416;-74
2023/04/07 06:42:07;;;;;;;6.90;4.15;;;;;;;16.11;35.23;100008.94;5103335;28;20408;-74
2023/04/07 06:44:35;;;;;;;5.93;4.57;;;;;;;16.08;35.53;100016.41;5104105;28;20470;-71
2023/04/07 06:47:04;;;;;;;6.25;4.15;;;;;;;16.08;35.15;100019.13;5093614;28;20083;-79
2023/04/07 06:49:32;;;;;;;6.00;4.10;;;;;;;16.05;35.18;100020.25;5101720;28;20039;-77
2023/04/07 06:52:04;;;;;;;7.40;4.43;;;;;;;16.02;35.24;100020.50;5104729;28;20097;-77
2023/04/07 06:54:36;;;;;;;7.05;4.68;;;;;;;16.00;35.20;100015.25;5108867;28;20074;-78
2023/04/07 06:57:05;;;;;;;6.70;4.22;;;;;;;15.97;35.38;100018.19;5105360;28;20496;-79
2023/04/07 06:59:34;;;;;;;6.57;4.40;;;;;;;15.95;35.29;100020.19;5107291;28;20052;-78
2023/04/07 07:02:03;;;;;;;6.20;4.40;;;;;;;15.93;35.25;100032.91;5114037;28;20040;-79
2023/04/07 07:04:31;;;;;;;5.82;4.00;;;;;;;15.93;35.24;100034.75;5114180;28;20480;-78
2023/04/07 07:06:59;;;;;;;6.60;4.30;;;;;;;15.91;35.38;100042.94;5114265;28;20082;-80
2023/04/07 07:09:27;;;;;;;7.07;4.43;;;;;;;15.87;35.39;100038.81;5116473;28;20047;-78
2023/04/07 07:11:57;;;;;;;5.80;4.03;;;;;;;15.87;35.39;100046.88;5115602;28;20502;-79
2023/04/07 07:14:25;;;;;;;5.82;3.90;;;;;;;15.85;35.50;100046.16;5114183;28;20069;-79
2023/04/07 07:16:54;;;;;;;6.35;4.18;;;;;;;15.84;35.44;100054.38;5114388;28;20139;-79
2023/04/07 07:19:22;;;;;;;5.45;3.80;;;;;;;15.81;35.53;100052.78;5114013;28;20142;-79
2023/04/07 07:21:50;;;;;;;6.55;4.05;;;;;;;15.80;35.46;100061.81;5114583;28;20062;-79
2023/04/07 07:24:18;;;;;;;5.70;4.00;;;;;;;15.78;35.37;100062.94;5114004;28;20090;-81
2023/04/07 07:26:46;;;;;;;6.35;3.85;;;;;;;15.78;35.51;100068.31;5114072;28;20431;-81
2023/04/07 07:29:16;;;;;;;6.20;4.13;;;;;;;15.76;35.50;100073.84;5103341;28;20048;-76
2023/04/07 07:31:44;;;;;;;5.85;4.38;;;;;;;15.74;35.61;100065.06;5099271;28;20050;-77
2023/04/07 07:34:12;;;;;;;6.90;4.53;;;;;;;15.71;35.54;100074.22;5100710;28;20598;-76
2023/04/07 07:36:41;;;;;;;6.55;4.25;;;;;;;15.70;35.29;100075.19;5100410;28;20044;-78
2023/04/07 07:39:09;;;;;;;5.72;4.05;;;;;;;15.70;35.62;100080.56;5100684;28;20061;-78
2023/04/07 07:41:38;;;;;;;6.88;4.03;;;;;;;15.71;36.04;100078.72;5101554;28;20050;-76
2023/04/07 07:44:06;;;;;;;5.43;4.00;;;;;;;15.71;35.71;100082.28;5102475;28;20057;-77
2023/04/07 07:46:36;;;;;;;6.80;4.35;;;;;;;15.70;35.97;100077.03;5091337;28;20447;-77
2023/04/07 07:49:04;;;;;;;5.82;4.00;;;;;;;15.71;36.25;100084.09;5099592;28;20471;-76
2023/04/07 07:51:33;;;;;;;8.38;4.63;;;;;;;15.71;36.53;100086.78;5102772;28;20126;-77
2023/04/07 07:54:01;;;;;;;6.80;4.70;;;;;;;15.71;36.72;100087.66;5099790;28;20457;-76
2023/04/07 07:56:29;;;;;;;9.85;4.32;;;;;;;15.72;36.91;100089.34;5102013;28;20044;-77
2023/04/07 07:58:57;;;;;;;8.07;5.05;;;;;;;15.70;37.04;100085.94;5097457;28;20040;-74
2023/04/07 08:01:26;;;;;;;7.60;4.40;;;;;;;15.74;37.36;100097.31;5101153;28;20039;-76
2023/04/07 08:03:56;;;;;;;6.97;4.45;;;;;;;15.76;37.52;100105.25;5099396;28;20055;-78
2023/04/07 08:06:26;;;;;;;6.70;4.10;;;;;;;15.75;37.64;100104.41;5091103;28;20048;-76
2023/04/07 08:08:54;;;;;;;9.02;4.30;;;;;;;15.77;37.85;100102.44;5091585;28;20139;-77
2023/04/07 08:11:22;;;;;;;7.75;4.18;;;;;;;15.78;38.08;100103.28;5091590;28;20447;-77
2023/04/07 08:13:50;;;;;;;8.90;4.40;;;;;;;15.79;38.10;100104.97;5091306;28;20051;-75
2023/04/07 08:16:18;;;;;;;9.82;4.20;;;;;;;15.80;38.33;100104.00;5091670;28;20106;-79
2023/04/07 08:18:46;;;;;;;10.68;4.25;;;;;;;15.81;38.60;100098.47;5092881;28;20116;-78
2023/04/07 08:21:16;;;;;;;7.68;4.40;;;;;;;15.81;38.49;100109.25;5101598;28;20055;-75
2023/04/07 08:23:45;;;;;;;8.23;4.50;;;;;;;15.79;38.58;100105.84;5103307;28;20094;-71
2023/04/07 08:26:15;;;;;;;7.97;4.82;;;;;;;15.84;38.80;100113.53;5102940;28;20040;-74
2023/04/07 08:28:43;;;;;;;6.85;4.00;;;;;;;15.84;38.60;100109.00;5103855;28;20412;-77
2023/04/07 08:31:14;;;;;;;7.70;3.90;;;;;;;15.88;39.29;100113.13;5106608;28;20044;-78
2023/04/07 08:33:43;;;;;;;7.90;4.38;;;;;;;15.86;38.94;100112.41;5106265;28;20044;-80
2023/04/07 08:36:11;;;;;;;8.90;5.57;;;;;;;15.87;38.82;100116.81;5104138;28;20062;-79
2023/04/07 08:38:40;;;;;;;9.40;5.40;;;;;;;15.87;38.66;100116.81;5106548;28;20051;-78
2023/04/07 08:41:13;;;;;;;9.48;5.00;;;;;;;15.87;38.43;100113.25;5108080;28;20146;-81
2023/04/07 08:43:45;;;;;;;10.38;5.38;;;;;;;15.86;38.26;100119.63;5108551;28;20110;-77
2023/04/07 08:46:16;;;;;;;7.57;4.90;;;;;;;15.86;37.88;100120.47;5106747;28;20074;-77
2023/04/07 08:48:46;;;;;;;7.00;4.95;;;;;;;15.86;37.92;100123.16;5106162;28;20115;-79
2023/04/07 08:51:23;;;;;;;8.07;5.40;;;;;;;15.87;37.91;100124.88;5105670;28;20450;-78
2023/04/07 08:53:58;;;;;;;11.00;5.57;;;;;;;15.87;37.98;100119.50;5108831;28;20078;-77
2023/04/07 08:56:26;;;;;;;7.43;5.07;;;;;;;15.87;38.05;100124.88;5096892;28;20044;-74
2023/04/07 08:58:55;;;;;;;8.63;5.40;;;;;;;15.88;38.08;100123.88;5098545;28;20090;-80
2023/04/07 09:01:25;;;;;;;8.57;5.13;;;;;;;15.87;38.25;100124.03;5099825;28;20492;-80
2023/04/07 09:03:54;;;;;;;8.63;5.90;;;;;;;15.89;38.07;100122.06;5101021;28;20056;-79
2023/04/07 09:06:22;;;;;;;8.32;5.35;;;;;;;15.89;38.13;100122.06;5102351;28;20761;-79
2023/04/07 09:08:51;;;;;;;9.82;6.55;;;;;;;15.90;38.16;100126.44;5099903;28;20044;-80
2023/04/07 09:11:22;;;;;;;7.97;5.88;;;;;;;15.91;38.02;100130.84;5106861;28;20042;-79
2023/04/07 09:13:50;;;;;;;6.43;4.80;;;;;;;15.89;38.18;100122.91;5107914;28;20485;-73
2023/04/07 09:16:19;;;;;;;8.05;5.15;;;;;;;15.91;38.19;100120.94;5099329;28;20048;-73
2023/04/07 09:18:47;;;;;;;9.73;5.53;;;;;;;15.90;38.29;100118.38;5095268;28;20101;-71
2023/04/07 09:21:19;;;;;;;8.25;6.00;;;;;;;15.92;38.41;100122.66;5108370;28;20075;-70
2023/04/07 09:24:00;;;;;;;6.47;4.57;;;;;;;15.95;38.33;100121.53;5111898;28;20044;-75
2023/04/07 09:26:30;;;;;;;7.78;4.32;;;;;;;15.95;39.23;100122.41;5114847;28;20101;-78
2023/04/07 09:29:00;;;;;;;7.80;3.90;;;;;;;16.00;40.63;100124.69;5097961;28;20062;-70
2023/04/07 09:31:44;;;;;;;6.68;4.15;;;;;;;16.07;41.58;100125.88;5094320;28;20051;-68
2023/04/07 09:34:27;;;;;;;9.88;4.45;;;;;;;16.12;41.86;100128.19;5076848;28;20051;-68
2023/04/07 09:36:56;;;;;;;6.55;3.90;;;;;;;16.16;41.85;100119.72;5097180;28;20071;-69
2023/04/07 09:39:24;;;;;;;7.78;4.38;;;;;;;16.21;41.92;100122.00;5097199;28;20067;-69
2023/04/07 09:41:54;;;;;;;7.90;4.40;;;;;;;16.25;41.92;100123.47;5094811;28;20081;-71
2023/04/07 09:44:23;;;;;;;6.47;3.80;;;;;;;16.27;41.85;100126.88;5094668;28;20048;-71
2023/04/07 09:46:53;;;;;;;7.38;4.00;;;;;;;16.31;41.87;100131.00;5094230;28;20131;-78
2023/04/07 09:49:21;;;;;;;5.93;4.00;;;;;;;16.34;42.07;100127.19;5094265;28;20155;-67
2023/04/07 09:51:54;;;;;;;8.63;4.18;;;;;;;16.38;41.92;100117.88;5093905;28;20131;-70
2023/04/07 09:54:36;;;;;;;7.82;4.32;;;;;;;16.39;41.85;100125.81;5093983;28;20062;-66
2023/04/07 09:57:07;;;;;;;6.28;4.20;;;;;;;16.42;41.87;100125.56;5093528;28;20123;-68
2023/04/07 09:59:37;;;;;;;6.95;4.05;;;;;;;16.45;41.85;100125.28;5094354;28;20051;-71
2023/04/07 10:02:06;;;;;;;8.40;4.28;;;;;;;16.47;41.76;100123.31;5111336;28;20043;-72
2023/04/07 10:04:35;;;;;;;5.90;3.80;;;;;;;16.50;41.81;100120.38;5115380;28;20172;-75
2023/04/07 10:07:03;;;;;;;7.63;4.35;;;;;;;16.52;41.91;100120.22;5097090;28;20043;-73
2023/04/07 10:09:32;;;;;;;7.25;4.03;;;;;;;16.55;42.02;100125.34;5115958;28;20048;-72
2023/04/07 10:12:00;;;;;;;8.50;4.10;;;;;;;16.59;41.87;100134.84;5114421;28;20051;-67
2023/04/07 10:14:31;;;;;;;5.65;3.55;;;;;;;16.59;41.72;100126.75;5094378;28;20500;-66
2023/04/07 10:17:00;;;;;;;6.43;3.78;;;;;;;16.64;41.92;100123.69;5095797;28;20059;-73
2023/04/07 10:19:32;;;;;;;9.25;4.63;;;;;;;16.66;42.05;100127.09;5101612;28;20149;-69
2023/04/07 10:22:03;;;;;;;9.98;4.93;;;;;;;16.67;42.13;100124.25;5094331;28;20044;-72
2023/04/07 10:24:46;;;;;;;12.32;5.65;;;;;;;16.69;42.50;100130.38;5098398;28;20123;-76
2023/04/07 10:27:16;;;;;;;;;;;;;;;16.73;42.92;100131.00;5113085;28;20088;-70
2023/04/07 10:29:51;;;;;;;22.65;7.90;;;;;;;16.75;42.97;100131.72;5113156;28;19934;-72
2023/04/07 10:32:20;;;;;;;30.60;8.77;;;;;;;16.75;43.22;100134.41;5113024;28;20039;-65
2023/04/07 10:34:59;;;;;;;26.80;8.98;;;;;;;16.78;43.40;100126.03;5112872;28;20050;-70
2023/04/07 10:37:28;;;;;;;23.55;8.75;;;;;;;16.80;43.83;100118.69;5112885;28;20423;-71
2023/04/07 10:40:30;;;;;;;26.25;10.13;;;;;;;16.85;44.19;100128.06;5113641;28;20043;-67
2023/04/07 10:42:59;;;;;;;40.70;12.95;;;;;;;16.89;44.62;100123.28;5112868;28;20043;-77
2023/04/07 10:46:00;;;;;;;43.08;13.75;;;;;;;16.93;45.20;100121.16;5113167;28;20047;-80
2023/04/07 10:48:31;;;;;;;42.53;13.25;;;;;;;16.96;45.38;100129.81;5113733;28;20103;-80
2023/04/07 10:51:16;;;;;;;43.00;12.25;;;;;;;16.96;45.83;100119.03;5116097;28;20147;-77
2023/04/07 10:54:25;;;;;;;34.70;12.48;;;;;;;17.02;46.13;100123.03;5113232;28;20424;-76
2023/04/07 10:57:12;;;;;;;34.00;12.02;;;;;;;17.05;46.40;100129.00;5112689;28;20048;-76
2023/04/07 10:59:45;;;;;;;35.38;11.77;;;;;;;17.09;46.76;100133.13;5112862;28;20442;-77
2023/04/07 11:02:34;;;;;;;37.92;11.93;;;;;;;17.12;46.94;100132.84;5113017;28;20052;-79
2023/04/07 11:05:03;;;;;;;39.20;12.32;;;;;;;17.14;46.88;100136.25;5111963;28;20511;-70
2023/04/07 11:07:57;;;;;;;32.90;11.32;;;;;;;17.19;46.60;100129.63;5112721;28;20135;-69
2023/04/07 11:10:25;;;;;;;36.92;11.10;;;;;;;17.20;46.30;100129.47;5112011;28;20052;-73
2023/04/07 11:13:06;;;;;;;34.65;11.25;;;;;;;17.24;45.84;100130.03;5112256;28;20043;-77
2023/04/07 11:15:36;;;;;;;34.47;10.82;;;;;;;17.26;45.55;100139.69;5105603;28;20051;-77
2023/04/07 11:18:15;;;;;;;28.65;11.20;;;;;;;17.27;45.31;100130.59;5091786;28;20160;-75
2023/04/07 11:20:48;;;;;;;31.10;10.95;;;;;;;17.28;45.16;100136.88;5091803;28;20139;-73
2023/04/07 11:23:18;;;;;;;27.50;10.63;;;;;;;17.31;45.08;100136.59;5091737;28;20083;-73
2023/04/07 11:25:48;;;;;;;27.17;9.73;;;;;;;17.33;44.96;100137.31;5091505;28;20157;-72
2023/04/07 11:28:16;;;;;;;41.33;10.90;;;;;;;17.33;44.75;100134.59;5091342;28;20056;-74
2023/04/07 11:30:48;;;;;;;34.70;10.32;;;;;;;17.35;44.57;100127.22;5091614;28;20044;-74
2023/04/07 11:33:20;;;;;;;29.98;10.38;;;;;;;17.37;44.38;100138.72;5091106;28;20396;-72
2023/04/07 11:35:55;;;;;;;27.80;10.20;;;;;;;17.37;44.56;100127.94;5091319;28;20105;-73
2023/04/07 11:38:27;;;;;;;32.72;10.38;;;;;;;17.39;44.51;100131.38;5091174;28;20284;-74
2023/04/07 11:40:56;;;;;;;26.42;9.65;;;;;;;17.41;44.36;100129.38;5092337;28;20055;-71
2023/04/07 11:43:26;;;;;;;25.45;9.27;;;;;;;17.41;44.09;100126.69;5092842;28;20044;-74